PAFA/FAI METAR and TAF weather

Enter ICAO airport designator
Station Type Date Time Source
PAFA METAR 2019/10/14 04:53 UTC NOAA

PAFA 140453Z 09007KT 10SM BKN026 OVC035 M01/M07 A3013 RMK AO2 SLP213 T10111067


Station Type Date Time Source
PAFA Decoded METAR 2019/10/14 04:53 UTC NOAA

Fairbanks, Fairbanks International Airport, AK, United States (PAFA) 64-48-14N 147-52-34W 140M
Oct 14, 2019 - 12:53 AM EDT / 2019.10.14 0453 UTC
Wind: from the E (090 degrees) at 8 MPH (7 KT):0
Visibility: 10 mile(s):0
Sky conditions: overcast
Temperature: 30.0 F (-1.1 C)
Windchill: 23 F (-5 C):1
Dew Point: 19.9 F (-6.7 C)
Relative Humidity: 65%
Pressure (altimeter): 30.13 in. Hg (1020 hPa)
ob: PAFA 140453Z 09007KT 10SM BKN026 OVC035 M01/M07 A3013 RMK AO2 SLP213 T10111067
cycle: 5

Station Type Date Time Source
PAFA TAF 2019/10/14 06:24 UTC NOAA

TAF PAFA 140520Z 1406/1512 09007KT P6SM BKN025 OVC035
FM140800 07006KT P6SM FEW025

Example: see airport list